Ana Sayfa
METAR-TAF:

METAR-TAF

Havaalanları :

Florești, Moldova

Enlem: 47-51-45N, Boylam: 028-12-45E, yükseklik: 101 m

Güncel hava durumu gözlemi

Rapor saat 13:00 UTC de 12 saat ve 8 dakika önce yapıldı.
Rüzgar kuzeydan 12 kt
Sıcaklık 2°C
Nem 80%
Basınç 1013 hPa
Görüş mesafesi 10 km veya daha fazla
1400 ft yükseklikte parçalı çok bulutlu

METAR: LUBM 111300Z 36012KT 9999 BKN014 02/M01 Q1013 R25/CLRD65

Saat: 03:08 (01:08 UTC)

Tahmin

Rapor saat 11:20 UTC de 13 saat ve 48 dakika önce yapıldı.
Ayın 11'si saat 12 UTC'den ayın 11'si saat 21 UTC'ye kadar geçerli Tahmin
Rüzgar kuzey/kuzeybatıdan 12 kt
Görüş mesafesi: 5000 m
500 ft yükseklikte parçalı çok bulutlu
Pus

TAF: LUBM 111120Z 1112/1121 34012KT 5000 BR BKN005

4.000'den fazla havaalanı için hava durumu gözlemleri ve tahminleri (METAR ve TAF raporları).

Kullanılabilir istasyonlar harita üzerinde sarı ve kırmızı noktalarla gösterilir.

İstasyonun adını görmek için fareyi noktanın üzerinde gezdirin.

Sonrasında hava gözlem ve tahminlerini görmek için tıklayın.

Haritayı değiştirmek için: yaklaştırmak için siyah artı işaretli yeşil düğmeye ve uzaklaştırmak için de eksi işaretli düğmeye hızla tıklayın; bitişik haritalar için yeşil okları kullanın.


METAR-TAF: